Time;durP1;ratioP1;P1;durP2;ratioP2;P2;SDS_P1;SDS_P2;PMS_P1;PMS_P2;Temp;Humidity;BMP_temperature;BMP_pressure;BME280_temperature;BME280_humidity;BME280_pressure;Samples;Min_cycle;Max_cycle;Signal;HPM_P1;HPM_P2
2024/02/06 00:02:03;;;;;;;11.90;6.10;;;5.30;98.00;;;;;;4993011;28;20465;-71
2024/02/06 00:04:30;;;;;;;14.37;6.10;;;5.50;98.00;;;;;;4992544;28;20484;-71
2024/02/06 00:06:57;;;;;;;14.80;6.30;;;5.60;98.00;;;;;;4992873;28;20804;-71
2024/02/06 00:09:26;;;;;;;14.60;6.57;;;5.70;98.00;;;;;;4992711;28;20461;-71
2024/02/06 00:11:53;;;;;;;12.90;6.40;;;5.80;98.00;;;;;;4992849;28;20464;-71
2024/02/06 00:14:20;;;;;;;17.77;6.70;;;5.70;98.00;;;;;;4992843;28;20481;-72
2024/02/06 00:16:48;;;;;;;14.37;6.63;;;5.80;98.00;;;;;;4992939;28;20467;-71
2024/02/06 00:19:15;;;;;;;17.10;7.33;;;5.80;98.00;;;;;;4993035;28;20497;-71
2024/02/06 00:21:42;;;;;;;13.70;6.70;;;5.90;98.00;;;;;;4992681;28;20961;-71
2024/02/06 00:24:10;;;;;;;17.07;6.87;;;5.80;98.00;;;;;;4992541;28;20463;-71
2024/02/06 00:26:39;;;;;;;15.10;6.50;;;5.80;98.00;;;;;;4992440;28;20453;-71
2024/02/06 00:29:10;;;;;;;19.60;7.33;;;5.90;98.00;;;;;;4992274;28;20461;-71
2024/02/06 00:31:38;;;;;;;14.13;6.53;;;5.90;98.00;;;;;;4992479;28;20772;-71
2024/02/06 00:34:05;;;;;;;18.37;6.50;;;5.90;98.00;;;;;;4992693;28;20467;-71
2024/02/06 00:36:32;;;;;;;12.60;6.37;;;5.90;98.00;;;;;;4992314;28;20477;-71
2024/02/06 00:38:59;;;;;;;20.43;6.93;;;6.00;98.00;;;;;;4992790;28;21019;-71
2024/02/06 00:41:26;;;;;;;20.33;7.00;;;6.10;98.00;;;;;;4996180;28;20456;-71
2024/02/06 00:43:56;;;;;;;16.93;7.30;;;6.10;98.00;;;;;;4996088;28;20465;-71
2024/02/06 00:46:23;;;;;;;18.23;7.30;;;6.10;98.00;;;;;;4995953;28;20960;-71
2024/02/06 00:48:50;;;;;;;14.93;6.80;;;6.00;98.00;;;;;;4995964;28;20456;-71
2024/02/06 00:51:17;;;;;;;16.23;6.93;;;5.90;98.00;;;;;;4995956;28;20476;-71
2024/02/06 00:53:45;;;;;;;14.90;6.10;;;6.00;98.00;;;;;;4996165;28;20461;-71
2024/02/06 00:56:12;;;;;;;17.23;7.23;;;6.00;98.00;;;;;;4995956;28;20546;-71
2024/02/06 00:58:40;;;;;;;18.60;7.57;;;6.00;98.00;;;;;;4995911;28;20494;-71
2024/02/06 01:01:09;;;;;;;12.77;6.10;;;5.80;98.00;;;;;;4995794;28;20512;-71
2024/02/06 01:03:44;;;;;;;17.73;6.77;;;5.80;98.00;;;;;;4995870;28;20471;-71
2024/02/06 01:06:11;;;;;;;12.73;6.10;;;5.80;98.00;;;;;;4995971;28;20562;-71
2024/02/06 01:08:41;;;;;;;12.30;6.50;;;5.90;98.00;;;;;;4995663;28;20477;-71
2024/02/06 01:11:08;;;;;;;15.10;6.80;;;5.80;98.00;;;;;;4995624;28;20526;-71
2024/02/06 01:13:35;;;;;;;19.63;7.10;;;5.70;98.00;;;;;;4995630;28;20453;-71
2024/02/06 01:16:03;;;;;;;15.70;6.70;;;5.80;98.00;;;;;;4995563;28;20465;-71
2024/02/06 01:18:31;;;;;;;14.70;6.43;;;5.80;98.00;;;;;;4995739;28;20455;-71
2024/02/06 01:20:59;;;;;;;14.03;6.53;;;5.80;98.00;;;;;;4995610;28;20465;-71
2024/02/06 01:23:26;;;;;;;15.37;6.90;;;5.70;98.00;;;;;;4995495;28;20550;-71
2024/02/06 01:25:53;;;;;;;21.70;6.87;;;5.70;98.00;;;;;;4995488;28;20461;-71
2024/02/06 01:28:20;;;;;;;21.27;6.00;;;5.80;98.00;;;;;;4995624;28;20466;-72
2024/02/06 01:30:49;;;;;;;16.70;5.93;;;5.80;98.00;;;;;;4995165;28;20465;-71
2024/02/06 01:33:16;;;;;;;14.20;5.70;;;5.90;98.00;;;;;;4995577;28;20448;-71
2024/02/06 01:35:45;;;;;;;15.63;5.73;;;5.80;98.00;;;;;;4995539;28;20458;-71
2024/02/06 01:38:12;;;;;;;12.10;5.37;;;5.80;98.00;;;;;;4995426;28;20465;-71
2024/02/06 01:40:42;;;;;;;12.57;5.80;;;5.70;98.00;;;;;;4995135;28;20491;-71
2024/02/06 01:43:11;;;;;;;16.80;6.20;;;5.80;98.00;;;;;;4995350;28;20967;-71
2024/02/06 01:45:39;;;;;;;14.27;5.60;;;5.80;98.00;;;;;;4995129;28;20481;-71
2024/02/06 01:48:10;;;;;;;13.23;5.70;;;5.70;98.00;;;;;;4995242;28;20459;-71
2024/02/06 01:50:38;;;;;;;15.30;6.07;;;5.70;98.00;;;;;;4993146;28;20541;-71
2024/02/06 01:53:07;;;;;;;14.50;6.00;;;5.80;98.00;;;;;;4995223;28;20469;-71
2024/02/06 01:55:35;;;;;;;14.00;5.53;;;5.80;98.00;;;;;;4995156;28;20489;-71
2024/02/06 01:58:03;;;;;;;14.30;5.00;;;5.80;98.00;;;;;;4995178;28;20454;-71
2024/02/06 02:00:30;;;;;;;11.60;5.30;;;5.90;98.00;;;;;;4994670;28;20832;-71
2024/02/06 02:02:58;;;;;;;13.87;5.70;;;6.00;98.00;;;;;;4995039;28;20468;-71
2024/02/06 02:05:27;;;;;;;11.10;5.40;;;6.00;98.00;;;;;;4995033;28;20472;-71
2024/02/06 02:07:54;;;;;;;13.57;5.77;;;6.10;98.00;;;;;;4994818;28;20461;-71
2024/02/06 02:10:24;;;;;;;13.37;5.57;;;6.20;98.00;;;;;;4994607;28;20984;-71
2024/02/06 02:12:51;;;;;;;15.07;5.33;;;6.10;98.00;;;;;;4993337;28;20467;-71
2024/02/06 02:15:18;;;;;;;12.83;5.63;;;6.10;98.00;;;;;;4994417;28;20892;-71
2024/02/06 02:17:51;;;;;;;16.20;5.60;;;6.20;98.00;;;;;;4994112;28;20461;-71
2024/02/06 02:20:18;;;;;;;19.30;5.43;;;6.30;98.00;;;;;;4993558;28;20488;-71
2024/02/06 02:22:47;;;;;;;12.63;5.60;;;6.20;98.00;;;;;;4994151;28;20455;-71
2024/02/06 02:25:14;;;;;;;10.00;5.20;;;6.20;98.00;;;;;;4993661;28;20460;-71
2024/02/06 02:27:42;;;;;;;12.30;5.37;;;6.00;98.00;;;;;;4993842;28;20465;-71
2024/02/06 02:30:10;;;;;;;14.03;5.63;;;6.00;98.00;;;;;;4994069;28;20464;-71
2024/02/06 02:32:38;;;;;;;12.73;5.50;;;6.00;98.00;;;;;;4994188;28;20463;-71
2024/02/06 02:35:05;;;;;;;15.17;5.47;;;6.00;98.00;;;;;;4993946;28;20461;-71
2024/02/06 02:37:33;;;;;;;10.23;4.83;;;6.00;98.00;;;;;;4993977;28;20462;-71
2024/02/06 02:40:01;;;;;;;12.77;5.20;;;6.10;98.00;;;;;;4993742;28;20497;-71
2024/02/06 02:42:29;;;;;;;14.10;5.80;;;6.10;98.00;;;;;;4993988;28;20462;-71
2024/02/06 02:44:56;;;;;;;12.77;5.30;;;6.10;98.00;;;;;;4994136;28;20465;-71
2024/02/06 02:47:23;;;;;;;13.23;5.10;;;6.00;98.00;;;;;;4993937;28;20448;-71
2024/02/06 02:49:51;;;;;;;13.90;5.30;;;6.10;98.00;;;;;;4993898;28;20944;-71
2024/02/06 02:52:18;;;;;;;11.67;5.43;;;6.10;98.00;;;;;;4994027;28;20469;-71
2024/02/06 02:54:46;;;;;;;12.80;5.47;;;6.20;98.00;;;;;;4994107;28;20448;-71
2024/02/06 02:57:14;;;;;;;15.20;5.80;;;6.30;98.00;;;;;;4993885;28;20460;-71
2024/02/06 02:59:41;;;;;;;12.53;4.90;;;6.20;98.00;;;;;;4992305;28;20482;-71
2024/02/06 03:02:09;;;;;;;14.83;5.43;;;6.30;98.00;;;;;;4992860;28;20555;-71
2024/02/06 03:04:36;;;;;;;11.00;4.90;;;6.30;98.00;;;;;;4993574;28;20815;-71
2024/02/06 03:07:03;;;;;;;11.90;4.77;;;6.40;98.00;;;;;;4993862;28;20481;-71
2024/02/06 03:09:30;;;;;;;17.03;5.47;;;6.40;98.00;;;;;;4993513;28;20459;-71
2024/02/06 03:11:58;;;;;;;8.93;4.87;;;6.40;98.00;;;;;;4993518;28;20461;-71
2024/02/06 03:14:27;;;;;;;12.00;5.40;;;6.50;98.00;;;;;;4993225;28;20460;-71
2024/02/06 03:16:54;;;;;;;14.73;5.20;;;6.50;98.00;;;;;;4993587;28;20460;-71
2024/02/06 03:19:21;;;;;;;12.70;5.27;;;6.40;98.00;;;;;;4993308;28;20500;-71
2024/02/06 03:21:48;;;;;;;17.80;5.13;;;6.40;98.00;;;;;;4993277;28;20469;-71
2024/02/06 03:24:16;;;;;;;13.13;5.10;;;6.40;98.00;;;;;;4993265;28;20479;-71
2024/02/06 03:26:43;;;;;;;9.67;5.20;;;6.30;98.00;;;;;;4992502;28;20467;-71
2024/02/06 03:29:10;;;;;;;13.57;5.33;;;6.20;98.00;;;;;;4992912;28;20449;-71
2024/02/06 03:31:39;;;;;;;18.77;5.40;;;6.20;98.00;;;;;;4992667;28;20469;-71
2024/02/06 03:34:06;;;;;;;10.40;4.60;;;6.30;98.00;;;;;;4992909;28;20449;-71
2024/02/06 03:36:33;;;;;;;12.10;5.17;;;6.30;98.00;;;;;;4991843;28;20465;-71
2024/02/06 03:39:00;;;;;;;17.40;5.20;;;6.40;98.00;;;;;;4993420;28;20457;-71
2024/02/06 03:41:28;;;;;;;12.37;5.00;;;6.60;98.00;;;;;;4993006;28;20840;-71
2024/02/06 03:43:55;;;;;;;13.10;5.37;;;6.60;98.00;;;;;;4992716;28;20452;-71
2024/02/06 03:46:23;;;;;;;16.47;5.63;;;;;;;;;;4993075;28;20823;-71
2024/02/06 03:48:52;;;;;;;12.87;5.20;;;6.70;98.00;;;;;;4993545;28;20467;-71
2024/02/06 03:51:19;;;;;;;15.37;4.93;;;6.60;98.00;;;;;;4993423;28;20464;-71
2024/02/06 03:53:46;;;;;;;11.50;5.47;;;6.60;98.00;;;;;;4992998;28;20456;-70
2024/02/06 03:56:17;;;;;;;16.37;5.37;;;6.50;98.00;;;;;;4993118;28;20802;-71
2024/02/06 03:58:44;;;;;;;11.40;5.20;;;6.40;98.00;;;;;;4992966;28;20894;-71
2024/02/06 04:01:11;;;;;;;15.07;6.03;;;6.40;98.00;;;;;;4992779;28;20487;-71
2024/02/06 04:03:38;;;;;;;12.00;5.10;;;6.40;98.00;;;;;;4992413;28;20461;-71
2024/02/06 04:06:07;;;;;;;10.37;5.33;;;6.40;98.00;;;;;;4992387;28;20469;-71
2024/02/06 04:08:34;;;;;;;16.33;5.57;;;6.30;98.00;;;;;;4992720;28;20474;-71
2024/02/06 04:11:02;;;;;;;11.77;5.23;;;6.20;98.00;;;;;;4991815;28;20464;-71
2024/02/06 04:13:29;;;;;;;12.57;5.20;;;6.20;98.00;;;;;;4991774;28;20465;-71
2024/02/06 04:15:57;;;;;;;12.80;5.80;;;6.20;98.00;;;;;;4992260;28;20519;-71
2024/02/06 04:18:24;;;;;;;12.37;5.50;;;6.20;98.00;;;;;;4992662;28;20459;-71
2024/02/06 04:20:51;;;;;;;16.27;5.53;;;6.30;98.00;;;;;;4992384;28;20479;-71
2024/02/06 04:23:19;;;;;;;16.23;5.23;;;6.20;98.00;;;;;;4992432;28;20464;-71
2024/02/06 04:25:46;;;;;;;11.20;5.13;;;6.20;98.00;;;;;;4992379;28;20566;-71
2024/02/06 04:28:14;;;;;;;17.40;5.50;;;6.20;98.00;;;;;;4992474;28;20463;-71
2024/02/06 04:30:41;;;;;;;9.70;4.90;;;6.20;98.00;;;;;;4992028;28;20487;-71
2024/02/06 04:33:08;;;;;;;14.10;4.80;;;6.00;98.00;;;;;;4992238;28;20448;-71
2024/02/06 04:35:38;;;;;;;10.43;5.23;;;6.00;98.00;;;;;;4992218;28;20456;-71
2024/02/06 04:38:06;;;;;;;14.27;5.67;;;6.00;98.00;;;;;;4992398;28;20466;-71
2024/02/06 04:40:34;;;;;;;13.90;5.87;;;6.10;98.00;;;;;;4992035;28;20898;-71
2024/02/06 04:43:02;;;;;;;16.00;5.90;;;6.10;98.00;;;;;;4992539;28;20831;-71
2024/02/06 04:45:31;;;;;;;13.73;5.50;;;6.20;98.00;;;;;;4992256;28;20451;-71
2024/02/06 04:47:58;;;;;;;13.90;5.20;;;6.20;98.00;;;;;;4991598;28;20993;-71
2024/02/06 04:50:25;;;;;;;11.20;5.40;;;6.10;98.00;;;;;;4992326;28;20453;-71
2024/02/06 04:52:55;;;;;;;15.63;5.83;;;6.00;98.00;;;;;;4992262;28;20488;-71
2024/02/06 04:55:22;;;;;;;15.10;5.77;;;6.00;98.00;;;;;;4992071;28;20548;-71
2024/02/06 04:57:51;;;;;;;10.57;4.93;;;6.00;98.00;;;;;;4991867;28;20463;-71
2024/02/06 05:00:18;;;;;;;14.27;5.40;;;6.10;98.00;;;;;;4992077;28;20489;-71
2024/02/06 05:02:46;;;;;;;15.53;6.60;;;6.00;98.00;;;;;;4992265;28;20480;-71
2024/02/06 05:05:13;;;;;;;13.30;5.30;;;6.00;98.00;;;;;;4992063;28;20480;-71
2024/02/06 05:07:40;;;;;;;19.13;4.93;;;5.80;98.00;;;;;;4992152;28;21139;-71
2024/02/06 05:10:13;;;;;;;19.13;6.47;;;5.80;98.00;;;;;;4992124;28;20458;-71
2024/02/06 05:12:42;;;;;;;12.40;5.03;;;5.70;98.00;;;;;;4992217;28;20551;-71
2024/02/06 05:15:16;;;;;;;25.50;5.67;;;5.70;98.00;;;;;;4991671;28;20514;-71
2024/02/06 05:17:43;;;;;;;13.53;5.40;;;5.60;98.00;;;;;;4992158;28;20464;-71
2024/02/06 05:20:11;;;;;;;12.63;5.17;;;5.50;98.00;;;;;;4991865;28;20542;-71
2024/02/06 05:22:39;;;;;;;12.10;5.60;;;5.40;98.00;;;;;;4990854;28;20450;-71
2024/02/06 05:25:07;;;;;;;10.97;4.93;;;5.40;98.00;;;;;;4992410;28;20467;-71
2024/02/06 05:27:38;;;;;;;13.20;5.37;;;5.40;98.00;;;;;;4995480;28;20559;-71
2024/02/06 05:30:07;;;;;;;11.67;5.30;;;5.40;98.00;;;;;;4995569;28;20482;-71
2024/02/06 05:32:36;;;;;;;14.23;6.43;;;5.40;98.00;;;;;;4995345;28;20465;-71
2024/02/06 05:35:04;;;;;;;14.70;5.23;;;5.40;98.00;;;;;;4995503;28;20462;-71
2024/02/06 05:37:32;;;;;;;13.00;5.37;;;5.40;98.00;;;;;;4995463;28;20457;-71
2024/02/06 05:39:59;;;;;;;17.20;4.63;;;5.50;98.00;;;;;;4995154;28;20452;-71
2024/02/06 05:42:29;;;;;;;13.77;5.60;;;5.50;98.00;;;;;;4995388;28;20462;-71
2024/02/06 05:44:56;;;;;;;10.53;5.00;;;5.60;98.00;;;;;;4995490;28;20462;-71
2024/02/06 05:47:23;;;;;;;15.17;5.00;;;5.60;98.00;;;;;;4995361;28;20532;-71
2024/02/06 05:49:52;;;;;;;10.57;4.57;;;5.70;98.00;;;;;;4995344;28;20459;-71
2024/02/06 05:52:19;;;;;;;12.70;5.17;;;5.80;98.00;;;;;;4995101;28;20464;-71
2024/02/06 05:54:46;;;;;;;9.17;4.87;;;5.90;98.00;;;;;;4995096;28;20934;-71
2024/02/06 05:57:13;;;;;;;11.63;5.00;;;6.00;98.00;;;;;;4995170;28;20458;-71
2024/02/06 05:59:42;;;;;;;13.70;6.03;;;6.10;98.00;;;;;;4994804;28;20460;-71
2024/02/06 06:02:09;;;;;;;14.67;5.83;;;6.30;98.00;;;;;;4994781;28;20493;-70
2024/02/06 06:04:36;;;;;;;17.47;5.90;;;6.10;98.00;;;;;;4994726;28;20465;-71
2024/02/06 06:07:04;;;;;;;10.67;4.73;;;6.10;98.00;;;;;;4994901;28;20467;-71
2024/02/06 06:09:32;;;;;;;12.60;5.40;;;6.10;98.00;;;;;;4993287;28;20460;-71
2024/02/06 06:11:59;;;;;;;15.10;5.37;;;6.00;98.00;;;;;;4994665;28;20461;-71
2024/02/06 06:14:26;;;;;;;9.97;4.90;;;5.90;98.00;;;;;;4994588;28;20468;-71
2024/02/06 06:16:53;;;;;;;13.10;5.40;;;5.80;98.00;;;;;;4994642;28;20471;-71
2024/02/06 06:19:20;;;;;;;12.97;5.50;;;5.90;98.00;;;;;;4994396;28;20456;-71
2024/02/06 06:21:48;;;;;;;11.50;4.77;;;6.00;98.00;;;;;;4994189;28;20483;-71
2024/02/06 06:24:16;;;;;;;11.80;4.90;;;6.00;98.00;;;;;;4993940;28;20454;-71
2024/02/06 06:26:44;;;;;;;10.03;4.90;;;6.00;98.00;;;;;;4994202;28;20470;-71
2024/02/06 06:29:11;;;;;;;10.00;4.50;;;6.00;98.00;;;;;;4994495;28;20454;-71
2024/02/06 06:31:38;;;;;;;15.20;5.57;;;6.10;98.00;;;;;;4994051;28;20954;-71
2024/02/06 06:34:05;;;;;;;14.00;6.53;;;6.20;98.00;;;;;;4994218;28;20449;-71
2024/02/06 06:36:32;;;;;;;14.30;6.60;;;6.30;98.00;;;;;;4993730;28;20453;-71
2024/02/06 06:39:00;;;;;;;12.47;5.37;;;6.30;98.00;;;;;;4994172;28;20488;-71
2024/02/06 06:41:29;;;;;;;13.17;5.47;;;6.40;98.00;;;;;;4993807;28;20500;-71
2024/02/06 06:43:57;;;;;;;15.40;5.77;;;6.40;98.00;;;;;;4993978;28;20457;-71
2024/02/06 06:46:24;;;;;;;21.40;5.83;;;6.40;98.00;;;;;;4993863;28;20457;-71
2024/02/06 06:48:51;;;;;;;14.93;5.70;;;6.40;98.00;;;;;;4993701;28;20462;-71
2024/02/06 06:51:19;;;;;;;11.90;5.80;;;6.40;98.00;;;;;;4993892;28;20946;-71
2024/02/06 06:53:46;;;;;;;16.90;6.97;;;6.40;98.00;;;;;;4994007;28;20460;-71
2024/02/06 06:56:19;;;;;;;15.30;6.47;;;6.40;98.00;;;;;;4994013;28;20467;-71
2024/02/06 06:58:48;;;;;;;13.80;5.80;;;6.40;98.00;;;;;;4993873;28;20834;-71
2024/02/06 07:01:15;;;;;;;12.20;5.50;;;6.20;98.00;;;;;;4993661;28;20485;-73
2024/02/06 07:03:42;;;;;;;17.50;5.63;;;6.20;98.00;;;;;;4994106;28;20827;-73
2024/02/06 07:06:09;;;;;;;15.13;6.30;;;6.20;98.00;;;;;;4993802;28;21123;-71
2024/02/06 07:08:38;;;;;;;16.87;6.47;;;6.20;98.00;;;;;;4993804;28;20459;-72
2024/02/06 07:11:06;;;;;;;11.20;5.10;;;6.30;98.00;;;;;;4993512;28;20511;-73
2024/02/06 07:13:33;;;;;;;11.47;5.23;;;6.20;98.00;;;;;;4993865;28;20466;-72
2024/02/06 07:16:03;;;;;;;15.13;5.90;;;6.20;98.00;;;;;;4993768;28;20461;-73
2024/02/06 07:18:30;;;;;;;18.40;6.10;;;6.10;98.00;;;;;;4993697;28;20460;-71
2024/02/06 07:20:58;;;;;;;16.10;5.67;;;6.10;98.00;;;;;;4991926;28;21009;-70
2024/02/06 07:23:25;;;;;;;11.77;5.30;;;6.20;98.00;;;;;;4993645;28;21008;-71
2024/02/06 07:25:52;;;;;;;13.00;5.63;;;6.30;98.00;;;;;;4993426;28;20456;-72
2024/02/06 07:28:19;;;;;;;16.33;5.70;;;6.40;98.00;;;;;;4993394;28;20453;-72
2024/02/06 07:30:46;;;;;;;16.27;5.50;;;6.40;98.00;;;;;;4992358;28;20485;-73
2024/02/06 07:33:15;;;;;;;11.60;5.13;;;6.40;98.00;;;;;;4992385;28;20460;-69
2024/02/06 07:35:42;;;;;;;14.47;5.00;;;6.30;98.00;;;;;;4993211;28;20937;-70
2024/02/06 07:38:11;;;;;;;10.20;4.40;;;6.40;98.00;;;;;;4993042;28;20564;-69
2024/02/06 07:40:38;;;;;;;10.93;4.63;;;6.50;98.00;;;;;;4992768;28;20457;-71
2024/02/06 07:43:05;;;;;;;8.03;4.53;;;6.60;98.00;;;;;;4993563;28;20656;-71
2024/02/06 07:45:32;;;;;;;13.70;4.80;;;6.60;98.00;;;;;;4993044;28;20489;-70
2024/02/06 07:47:59;;;;;;;12.40;5.43;;;6.60;98.00;;;;;;4992585;28;20452;-70
2024/02/06 07:50:28;;;;;;;14.10;5.27;;;6.50;98.00;;;;;;4992991;28;20454;-70
2024/02/06 07:52:55;;;;;;;13.23;5.70;;;6.40;98.00;;;;;;4992668;28;20453;-71
2024/02/06 07:55:23;;;;;;;13.43;5.10;;;6.50;98.00;;;;;;4992638;28;20523;-71
2024/02/06 07:57:50;;;;;;;12.90;4.90;;;6.60;98.00;;;;;;4992712;28;21276;-71
2024/02/06 08:00:18;;;;;;;9.57;4.43;;;6.60;98.00;;;;;;4992606;28;20464;-70
2024/02/06 08:02:45;;;;;;;9.60;4.20;;;6.60;98.00;;;;;;4992568;28;20485;-71
2024/02/06 08:05:12;;;;;;;15.40;5.03;;;6.50;98.00;;;;;;4992470;28;20469;-70
2024/02/06 08:07:42;;;;;;;12.10;5.07;;;6.60;98.00;;;;;;4992073;28;20457;-72
2024/02/06 08:10:10;;;;;;;15.60;5.20;;;6.60;98.00;;;;;;4992072;28;20448;-71
2024/02/06 08:12:37;;;;;;;17.60;5.30;;;6.50;98.00;;;;;;4992607;28;20453;-70
2024/02/06 08:15:08;;;;;;;12.80;5.27;;;6.60;98.00;;;;;;4992623;28;20458;-71
2024/02/06 08:17:40;;;;;;;10.17;4.73;;;6.60;98.00;;;;;;4992526;28;20952;-71
2024/02/06 08:20:09;;;;;;;11.97;4.50;;;6.50;98.00;;;;;;4991719;28;20458;-71
2024/02/06 08:22:36;;;;;;;10.43;4.40;;;6.60;98.00;;;;;;4991709;28;20850;-73
2024/02/06 08:25:15;;;;;;;15.47;4.70;;;6.50;98.00;;;;;;4992380;28;20460;-71
2024/02/06 08:27:42;;;;;;;10.63;4.53;;;6.50;98.00;;;;;;4992372;28;20552;-71
2024/02/06 08:30:10;;;;;;;14.27;5.37;;;6.60;98.00;;;;;;4992208;28;20489;-70
2024/02/06 08:32:38;;;;;;;11.23;4.40;;;6.50;98.00;;;;;;4992125;28;20460;-71
2024/02/06 08:35:06;;;;;;;16.57;5.10;;;6.50;98.00;;;;;;4991347;28;20468;-72
2024/02/06 08:37:33;;;;;;;11.50;4.70;;;6.60;98.00;;;;;;4991198;28;20482;-72
2024/02/06 08:40:00;;;;;;;15.90;5.10;;;6.70;98.00;;;;;;4990685;28;20477;-71
2024/02/06 08:42:29;;;;;;;8.57;4.27;;;6.80;98.00;;;;;;4992065;28;20525;-70
2024/02/06 08:44:56;;;;;;;9.80;4.73;;;7.00;98.00;;;;;;4992002;28;20471;-72
2024/02/06 08:47:25;;;;;;;12.80;4.27;;;7.10;98.00;;;;;;4992425;28;20457;-67
2024/02/06 08:49:52;;;;;;;7.03;3.47;;;7.10;98.00;;;;;;4991964;28;20498;-66
2024/02/06 08:52:19;;;;;;;10.83;4.10;;;8.00;98.00;;;;;;4992011;28;20844;-71
2024/02/06 08:54:46;;;;;;;10.70;4.50;;;8.90;98.00;;;;;;4991771;28;20452;-67
2024/02/06 08:57:13;;;;;;;13.23;5.40;;;9.10;98.00;;;;;;4991363;28;20459;-73
2024/02/06 08:59:43;;;;;;;10.50;5.00;;;8.90;98.00;;;;;;4991818;28;20451;-72
2024/02/06 09:02:11;;;;;;;14.70;5.10;;;8.40;98.00;;;;;;4995591;28;20496;-72
2024/02/06 09:04:38;;;;;;;23.43;5.77;;;8.20;98.00;;;;;;4995651;28;20459;-70
2024/02/06 09:07:07;;;;;;;11.13;5.17;;;8.10;98.00;;;;;;4994555;28;20546;-72
2024/02/06 09:09:34;;;;;;;15.87;5.87;;;7.90;98.00;;;;;;4995747;28;20526;-69
2024/02/06 09:12:02;;;;;;;14.33;5.53;;;7.80;98.00;;;;;;4995635;28;20461;-68
2024/02/06 09:14:30;;;;;;;13.30;5.30;;;7.60;98.00;;;;;;4995721;28;20463;-68
2024/02/06 09:16:59;;;;;;;11.60;4.87;;;7.50;98.00;;;;;;4995269;28;20455;-70
2024/02/06 09:19:26;;;;;;;10.23;5.27;;;7.40;98.00;;;;;;4994654;28;20462;-70
2024/02/06 09:21:53;;;;;;;12.20;5.07;;;7.30;98.00;;;;;;4995506;28;20500;-69
2024/02/06 09:24:20;;;;;;;10.63;4.90;;;7.30;98.00;;;;;;4995624;28;20454;-71
2024/02/06 09:26:48;;;;;;;12.47;5.30;;;7.30;98.00;;;;;;4995567;28;20454;-71
2024/02/06 09:29:15;;;;;;;12.70;5.00;;;7.30;98.00;;;;;;4994608;28;20877;-71
2024/02/06 09:31:43;;;;;;;10.73;4.80;;;7.30;98.00;;;;;;4995184;28;20457;-70
2024/02/06 09:34:12;;;;;;;9.13;4.43;;;7.30;98.00;;;;;;4995056;28;20463;-69
2024/02/06 09:36:39;;;;;;;12.70;4.63;;;7.30;98.00;;;;;;4995215;28;20448;-70
2024/02/06 09:39:07;;;;;;;17.37;5.00;;;7.30;98.00;;;;;;4994974;28;20464;-70
2024/02/06 09:41:34;;;;;;;11.93;5.00;;;7.40;98.00;;;;;;4994763;28;20494;-71
2024/02/06 09:44:02;;;;;;;11.00;4.63;;;7.40;98.00;;;;;;4995245;28;20453;-71
2024/02/06 09:46:29;;;;;;;11.97;4.50;;;7.40;98.00;;;;;;4995067;28;20465;-71
2024/02/06 09:48:56;;;;;;;8.33;4.40;;;7.50;98.00;;;;;;4995040;28;21010;-70
2024/02/06 09:51:26;;;;;;;15.33;5.00;;;7.50;98.00;;;;;;4994086;28;20467;-71
2024/02/06 09:53:59;;;;;;;10.40;4.53;;;7.60;98.00;;;;;;4995178;28;20462;-71
2024/02/06 09:56:28;;;;;;;11.77;4.67;;;7.60;98.00;;;;;;4995256;28;20457;-73
2024/02/06 09:58:57;;;;;;;11.13;4.67;;;7.70;98.00;;;;;;4995029;28;20458;-71
2024/02/06 10:01:25;;;;;;;8.57;4.00;;;7.70;98.00;;;;;;4994462;28;20493;-70
2024/02/06 10:03:55;;;;;;;8.60;4.03;;;7.80;98.00;;;;;;4994751;28;20464;-70
2024/02/06 10:06:23;;;;;;;7.37;3.70;;;7.80;98.00;;;;;;4994267;28;20963;-71
2024/02/06 10:08:52;;;;;;;8.00;3.80;;;7.80;98.00;;;;;;4994615;28;20527;-70
2024/02/06 10:13:47;;;;;;;9.93;4.33;;;8.00;98.00;;;;;;4992213;28;20474;-69
2024/02/06 10:16:15;;;;;;;9.10;4.10;;;8.00;98.00;;;;;;4993297;28;20457;-71
2024/02/06 10:18:52;;;;;;;7.80;3.63;;;8.10;98.00;;;;;;4993848;28;21013;-72
2024/02/06 10:21:19;;;;;;;6.33;3.40;;;8.10;98.00;;;;;;4993897;28;20488;-71
2024/02/06 10:23:47;;;;;;;6.57;2.87;;;8.20;98.00;;;;;;4993594;28;20463;-69
2024/02/06 10:31:18;;;;;;;6.30;3.57;;;8.30;98.00;;;;;;5114277;23;20511;-62
2024/02/06 10:33:45;;;;;;;4.47;2.87;;;8.40;98.00;;;;;;4972615;28;20461;-63
2024/02/06 10:36:12;;;;;;;5.70;3.10;;;8.40;98.00;;;;;;4973815;28;20469;-62
2024/02/06 10:38:39;;;;;;;4.93;2.97;;;8.40;98.00;;;;;;4959149;28;20460;-62
2024/02/06 10:41:09;;;;;;;6.43;3.17;;;8.40;98.00;;;;;;4954246;28;20468;-62
2024/02/06 10:43:37;;;;;;;7.17;2.77;;;8.50;98.00;;;;;;4983798;28;20969;-63
2024/02/06 10:46:05;;;;;;;6.37;2.80;;;8.50;98.00;;;;;;4993441;28;20503;-63
2024/02/06 10:48:33;;;;;;;3.60;2.43;;;8.50;98.00;;;;;;4993997;28;20931;-62
2024/02/06 10:51:04;;;;;;;4.93;2.67;;;8.50;98.00;;;;;;4993629;28;20468;-62
2024/02/06 10:53:31;;;;;;;6.00;3.20;;;8.60;98.00;;;;;;4990893;28;20462;-62
2024/02/06 10:56:06;;;;;;;6.80;2.70;;;8.60;98.00;;;;;;4983028;28;20476;-63
2024/02/06 10:58:38;;;;;;;5.40;2.33;;;8.60;98.00;;;;;;4991906;28;20953;-63
2024/02/06 11:01:08;;;;;;;4.17;2.60;;;8.70;98.00;;;;;;4991672;28;20488;-64
2024/02/06 11:03:45;;;;;;;6.50;2.70;;;8.70;98.00;;;;;;4991546;28;20492;-63
2024/02/06 11:06:21;;;;;;;5.93;2.87;;;8.70;98.00;;;;;;4993619;28;20474;-63
2024/02/06 11:08:49;;;;;;;4.97;2.57;;;8.70;98.00;;;;;;4993813;28;20546;-63
2024/02/06 11:11:18;;;;;;;8.57;2.70;;;8.70;98.00;;;;;;4993471;28;20464;-63
2024/02/06 11:13:48;;;;;;;3.67;2.40;;;8.80;98.00;;;;;;4993297;28;20466;-64
2024/02/06 11:16:19;;;;;;;5.07;2.40;;;8.80;98.00;;;;;;4992937;28;20460;-64
2024/02/06 11:18:56;;;;;;;7.90;2.43;;;8.80;98.00;;;;;;4993098;28;20969;-63
2024/02/06 11:21:30;;;;;;;4.67;2.50;;;8.90;98.00;;;;;;4993001;28;20444;-64
2024/02/06 11:24:00;;;;;;;4.10;2.60;;;8.80;98.00;;;;;;4992412;28;20480;-63
2024/02/06 11:26:27;;;;;;;4.93;2.80;;;8.90;98.00;;;;;;4986748;28;20464;-63
2024/02/06 11:28:54;;;;;;;5.03;2.90;;;8.90;98.00;;;;;;4975291;28;20454;-63
2024/02/06 11:31:23;;;;;;;3.63;2.20;;;8.90;98.00;;;;;;4973514;28;20487;-63
2024/02/06 11:33:51;;;;;;;6.33;2.90;;;9.00;98.00;;;;;;4998703;23;20528;-87
2024/02/06 11:36:20;;;;;;;3.57;2.07;;;9.10;98.00;;;;;;4994107;28;20449;-87
2024/02/06 11:38:58;;;;;;;4.13;2.43;;;9.10;98.00;;;;;;4992203;28;21019;-87
2024/02/06 11:51:18;;;;;;;3.60;2.13;;;9.40;98.00;;;;;;4955818;28;20937;-86
2024/02/06 11:54:11;;;;;;;3.70;2.30;;;9.40;98.00;;;;;;4992149;28;20812;-87
2024/02/06 11:56:41;;;;;;;8.00;2.90;;;9.50;98.00;;;;;;4988763;28;20480;-87
2024/02/06 11:59:17;;;;;;;3.27;2.03;;;9.50;98.00;;;;;;4991557;28;20481;-87
2024/02/06 12:35:44;;;;;;;3.17;2.20;;;9.80;98.00;;;;;;4889939;29;20504;-88
2024/02/06 12:38:12;;;;;;;7.13;2.30;;;9.80;98.00;;;;;;4915678;29;20571;-87
2024/02/06 12:40:41;;;;;;;5.40;2.27;;;9.80;98.00;;;;;;4937664;28;20460;-87
2024/02/06 12:43:11;;;;;;;3.97;2.60;;;9.80;98.00;;;;;;4995187;28;20485;-87
2024/02/06 12:45:40;;;;;;;5.10;1.80;;;9.80;98.00;;;;;;4995308;28;20919;-87
2024/02/06 12:48:08;;;;;;;2.93;1.90;;;9.80;98.00;;;;;;4995269;28;20518;-87
2024/02/06 12:50:36;;;;;;;2.73;2.13;;;9.80;98.00;;;;;;5005296;28;20459;-87
2024/02/06 12:53:07;;;;;;;4.17;2.10;;;9.80;98.00;;;;;;5009323;28;20482;-88
2024/02/06 12:55:35;;;;;;;5.53;2.40;;;9.90;98.00;;;;;;5003602;28;20474;-87
2024/02/06 12:58:03;;;;;;;2.40;1.90;;;9.90;98.00;;;;;;4995086;28;20503;-87
2024/02/06 13:00:30;;;;;;;11.13;2.67;;;9.90;98.00;;;;;;4994798;28;20475;-87
2024/02/06 13:03:01;;;;;;;4.23;2.30;;;9.90;98.00;;;;;;4995073;28;20495;-87
2024/02/06 13:05:29;;;;;;;4.50;2.10;;;9.90;98.00;;;;;;4994969;28;20884;-88
2024/02/06 13:08:06;;;;;;;4.03;2.00;;;9.80;98.00;;;;;;4994604;28;20488;-87
2024/02/06 13:10:33;;;;;;;3.20;2.00;;;9.90;98.00;;;;;;4994560;28;20459;-87
2024/02/06 13:13:03;;;;;;;5.90;2.20;;;9.80;98.00;;;;;;4995425;28;20463;-87
2024/02/06 13:15:32;;;;;;;4.43;2.20;;;9.80;98.00;;;;;;4995138;28;20457;-87
2024/02/06 13:17:59;;;;;;;4.90;2.40;;;9.80;98.00;;;;;;4995011;28;21010;-87
2024/02/06 13:20:28;;;;;;;4.33;2.10;;;9.80;98.00;;;;;;4994303;28;20449;-88
2024/02/06 13:22:55;;;;;;;2.70;1.57;;;9.90;98.00;;;;;;4994633;28;20523;-87
2024/02/06 13:25:24;;;;;;;3.03;1.97;;;9.90;98.00;;;;;;4994964;28;20488;-87
2024/02/06 13:27:51;;;;;;;3.67;2.00;;;10.00;98.00;;;;;;4995261;28;20494;-87
2024/02/06 13:30:18;;;;;;;6.23;1.90;;;10.00;98.00;;;;;;4995254;28;20848;-87
2024/02/06 13:32:45;;;;;;;3.43;2.10;;;10.00;98.00;;;;;;4995700;28;20522;-87
2024/02/06 13:35:13;;;;;;;4.80;2.03;;;9.90;98.00;;;;;;4995370;28;20527;-88
2024/02/06 13:37:40;;;;;;;4.20;1.90;;;10.00;98.00;;;;;;4993777;28;20495;-87
2024/02/06 13:40:08;;;;;;;5.90;2.10;;;10.00;98.00;;;;;;4994458;28;20457;-87
2024/02/06 13:42:36;;;;;;;4.60;2.20;;;10.00;98.00;;;;;;4995136;28;20556;-87
2024/02/06 13:45:05;;;;;;;6.27;3.20;;;10.00;98.00;;;;;;4995588;28;20951;-87
2024/02/06 13:47:32;;;;;;;4.83;2.03;;;10.10;98.00;;;;;;4994322;28;20479;-88